Time;durP1;ratioP1;P1;durP2;ratioP2;P2;SDS_P1;SDS_P2;PMS_P1;PMS_P2;Temp;Humidity;BMP_temperature;BMP_pressure;BME280_temperature;BME280_humidity;BME280_pressure;Samples;Min_cycle;Max_cycle;Signal;HPM_P1;HPM_P2
2023/12/14 00:01:48;;;;;;;78.30;28.30;;;;;;;-128.00;-1.00;-1.00;100647;1280;1013489;-36
2023/12/14 00:04:14;;;;;;;57.60;22.70;;;;;;;-128.00;-1.00;-1.00;100489;1280;1002719;-31
2023/12/14 00:06:40;;;;;;;71.10;26.50;;;;;;;-128.00;-1.00;-1.00;100516;1280;1003426;-31
2023/12/14 00:09:08;;;;;;;71.90;26.40;;;;;;;-128.00;-1.00;-1.00;100555;1280;1004356;-31
2023/12/14 00:11:37;;;;;;;70.80;27.10;;;;;;;-128.00;-1.00;-1.00;100451;1283;1058634;-29
2023/12/14 00:14:03;;;;;;;82.10;26.40;;;;;;;-128.00;-1.00;-1.00;100493;1279;1012485;-33
2023/12/14 00:16:29;;;;;;;108.70;29.40;;;;;;;-128.00;-1.00;-1.00;100590;1280;1002907;-30
2023/12/14 00:18:55;;;;;;;112.00;31.10;;;;;;;-128.00;-1.00;-1.00;100665;1280;1004700;-31
2023/12/14 00:21:21;;;;;;;110.30;30.50;;;;;;;-128.00;-1.00;-1.00;100559;1280;1056254;-32
2023/12/14 00:23:47;;;;;;;108.10;29.80;;;;;;;-128.00;-1.00;-1.00;100461;1284;1003100;-31
2023/12/14 00:26:12;;;;;;;75.70;24.20;;;;;;;-128.00;-1.00;-1.00;100516;1280;1004261;-31
2023/12/14 00:28:39;;;;;;;101.60;29.30;;;;;;;-128.00;-1.00;-1.00;100490;1280;1046711;-31
2023/12/14 00:31:05;;;;;;;103.10;29.70;;;;;;;-128.00;-1.00;-1.00;100515;1280;1002448;-32
2023/12/14 00:33:30;;;;;;;106.80;29.70;;;;;;;-128.00;-1.00;-1.00;100602;1280;1003213;-34
2023/12/14 00:35:56;;;;;;;103.90;28.80;;;;;;;-128.00;-1.00;-1.00;100546;1280;1013228;-31
2023/12/14 00:38:22;;;;;;;85.90;27.10;;;;;;;-128.00;-1.00;-1.00;100627;1279;1003390;-30
2023/12/14 00:40:48;;;;;;;93.20;26.90;;;;;;;-128.00;-1.00;-1.00;100751;1280;1003090;-31
2023/12/14 00:43:14;;;;;;;89.60;25.80;;;;;;;-128.00;-1.00;-1.00;100548;1280;1056040;-31
2023/12/14 00:45:41;;;;;;;86.20;27.80;;;;;;;-128.00;-1.00;-1.00;100546;1280;1003489;-32
2023/12/14 00:48:06;;;;;;;95.60;27.90;;;;;;;-128.00;-1.00;-1.00;100522;1280;1002904;-32
2023/12/14 00:50:32;;;;;;;83.20;25.90;;;;;;;-128.00;-1.00;-1.00;100592;1280;1003571;-31
2023/12/14 00:52:58;;;;;;;85.00;27.40;;;;;;;-128.00;-1.00;-1.00;100583;1284;1004903;-31
2023/12/14 00:55:24;;;;;;;81.10;25.00;;;;;;;-128.00;-1.00;-1.00;100552;1279;1055149;-32
2023/12/14 00:57:50;;;;;;;87.00;24.60;;;;;;;-128.00;-1.00;-1.00;100538;1285;1003474;-32
2023/12/14 01:00:16;;;;;;;91.50;26.70;;;;;;;-128.00;-1.00;-1.00;100552;1280;1003959;-31
2023/12/14 01:02:42;;;;;;;90.50;24.80;;;;;;;-128.00;-1.00;-1.00;100624;1280;1045617;-35
2023/12/14 01:05:08;;;;;;;87.30;26.50;;;;;;;-128.00;-1.00;-1.00;100545;1284;1002652;-40
2023/12/14 01:07:33;;;;;;;103.20;30.10;;;;;;;-128.00;-1.00;-1.00;100567;1280;1003685;-31
2023/12/14 01:09:59;;;;;;;107.30;30.60;;;;;;;-128.00;-1.00;-1.00;100461;1280;1013555;-32
2023/12/14 01:12:25;;;;;;;109.00;31.20;;;;;;;-128.00;-1.00;-1.00;100661;1280;1003224;-34
2023/12/14 01:14:51;;;;;;;98.60;29.40;;;;;;;-128.00;-1.00;-1.00;100811;1280;1003528;-33
2023/12/14 01:17:17;;;;;;;96.80;27.80;;;;;;;-128.00;-1.00;-1.00;100546;1280;1056506;-32
2023/12/14 01:19:42;;;;;;;110.60;29.70;;;;;;;-128.00;-1.00;-1.00;100552;1280;1003151;-29
2023/12/14 01:22:08;;;;;;;105.20;27.50;;;;;;;-128.00;-1.00;-1.00;100542;1279;1004229;-32
2023/12/14 01:24:34;;;;;;;121.70;29.10;;;;;;;-128.00;-1.00;-1.00;100558;1280;1046743;-34
2023/12/14 01:27:00;;;;;;;120.70;29.40;;;;;;;-128.00;-1.00;-1.00;100525;1280;1002866;-34
2023/12/14 01:29:26;;;;;;;95.70;28.70;;;;;;;-128.00;-1.00;-1.00;100588;1280;1003513;-31
2023/12/14 01:31:52;;;;;;;108.80;30.00;;;;;;;-128.00;-1.00;-1.00;100398;1280;1013485;-33
2023/12/14 01:34:17;;;;;;;103.50;29.40;;;;;;;-128.00;-1.00;-1.00;100522;1280;1003809;-32
2023/12/14 01:36:43;;;;;;;98.90;28.00;;;;;;;-128.00;-1.00;-1.00;100513;1280;1003131;-32
2023/12/14 01:39:09;;;;;;;99.70;28.10;;;;;;;-128.00;-1.00;-1.00;100518;1280;1056248;-31
2023/12/14 01:41:35;;;;;;;98.60;28.20;;;;;;;-128.00;-1.00;-1.00;100497;1285;1002659;-31
2023/12/14 01:44:01;;;;;;;100.00;26.10;;;;;;;-128.00;-1.00;-1.00;100535;1280;1003039;-31
2023/12/14 01:46:26;;;;;;;101.60;28.10;;;;;;;-128.00;-1.00;-1.00;100535;1280;1046853;-31
2023/12/14 01:48:52;;;;;;;102.20;27.10;;;;;;;-128.00;-1.00;-1.00;100585;1285;1003004;-32
2023/12/14 01:51:18;;;;;;;;;;;;;;;-128.00;-1.00;-1.00;100515;1285;1003265;-31
2023/12/14 02:34:56;;;;;;;86.30;23.00;;;;;;;-102.02;19.20;19655.38;100894;1282;1599687;-34
2023/12/14 02:37:22;;;;;;;94.30;24.60;;;;;;;-128.00;-1.00;-1.00;100249;1285;1004704;-30
2023/12/14 02:39:48;;;;;;;92.10;25.00;;;;;;;-128.00;-1.00;-1.00;100450;1284;1004135;-30
2023/12/14 02:42:14;;;;;;;82.80;23.40;;;;;;;-128.00;-1.00;-1.00;100580;1282;1059362;-31
2023/12/14 02:44:40;;;;;;;65.50;21.80;;;;;;;-128.00;-1.00;-1.00;100503;1281;1004494;-31
2023/12/14 02:47:06;;;;;;;84.30;24.10;;;;;;;-128.00;-1.00;-1.00;100584;1281;1003397;-31
2023/12/14 02:49:33;;;;;;;80.90;23.40;;;;;;;-128.00;-1.00;-1.00;100411;1282;1039844;-32
2023/12/14 02:51:59;;;;;;;76.70;23.00;;;;;;;-128.00;-1.00;-1.00;100424;1281;1003081;-31
2023/12/14 02:54:25;;;;;;;87.70;27.00;;;;;;;-128.00;-1.00;-1.00;100482;1284;1003369;-31
2023/12/14 02:56:50;;;;;;;87.00;27.20;;;;;;;-128.00;-1.00;-1.00;100549;1284;1003529;-32
2023/12/14 02:59:16;;;;;;;79.90;24.70;;;;;;;-128.00;-1.00;-1.00;100412;1281;1012522;-33
2023/12/14 03:01:42;;;;;;;75.40;23.60;;;;;;;-128.00;-1.00;-1.00;100513;1282;1003031;-36
2023/12/14 03:04:08;;;;;;;91.60;26.20;;;;;;;-128.00;-1.00;-1.00;100400;1282;1004874;-30
2023/12/14 03:06:34;;;;;;;;;;;;;;;-128.00;-1.00;-1.00;100385;1282;1056257;-30
2023/12/14 03:09:00;;;;;;;75.90;23.40;;;;;;;-128.00;-1.00;-1.00;100452;1282;1005448;-31
2023/12/14 03:11:26;;;;;;;73.90;23.00;;;;;;;-128.00;-1.00;-1.00;100262;1283;1003019;-31
2023/12/14 03:13:52;;;;;;;77.00;25.00;;;;;;;-128.00;-1.00;-1.00;100463;1284;1004192;-31
2023/12/14 03:16:18;;;;;;;;;;;;;;;-128.00;-1.00;-1.00;100504;1281;1060160;-31
2023/12/14 03:18:44;;;;;;;84.20;26.50;;;;;;;-128.00;-1.00;-1.00;100496;1281;1002660;-30
2023/12/14 03:21:10;;;;;;;106.40;28.60;;;;;;;-128.00;-1.00;-1.00;100382;1282;1003046;-31
2023/12/14 03:23:36;;;;;;;94.50;26.60;;;;;;;-128.00;-1.00;-1.00;100486;1282;1003397;-32
2023/12/14 03:26:02;;;;;;;102.20;28.40;;;;;;;-128.00;-1.00;-1.00;100436;1284;1045765;-34
2023/12/14 03:28:28;;;;;;;101.50;26.90;;;;;;;-128.00;-1.00;-1.00;100558;1281;1003373;-31
2023/12/14 03:30:53;;;;;;;80.70;25.20;;;;;;;-128.00;-1.00;-1.00;100450;1282;1003327;-31
2023/12/14 03:33:19;;;;;;;85.30;23.90;;;;;;;-128.00;-1.00;-1.00;100365;1282;1003102;-31
2023/12/14 03:35:46;;;;;;;98.00;26.70;;;;;;;-128.00;-1.00;-1.00;100498;1282;1039359;-30
2023/12/14 03:38:15;;;;;;;121.30;27.10;;;;;;;-128.00;-1.00;-1.00;100425;1282;1005179;-33
2023/12/14 03:40:41;;;;;;;91.30;24.30;;;;;;;-128.00;-1.00;-1.00;100327;1281;1059127;-29
2023/12/14 03:43:06;;;;;;;111.30;27.50;;;;;;;-128.00;-1.00;-1.00;100350;1281;1003771;-30
2023/12/14 03:45:32;;;;;;;123.30;28.10;;;;;;;-128.00;-1.00;-1.00;100294;1282;1003121;-32
2023/12/14 03:47:58;;;;;;;114.80;26.70;;;;;;;-128.00;-1.00;-1.00;100408;1282;1039462;-31
2023/12/14 03:50:24;;;;;;;107.50;26.40;;;;;;;-128.00;-1.00;-1.00;100451;1282;1003444;-31
2023/12/14 03:52:50;;;;;;;106.50;25.40;;;;;;;-128.00;-1.00;-1.00;100487;1281;1003218;-32
2023/12/14 03:55:16;;;;;;;105.70;25.00;;;;;;;-128.00;-1.00;-1.00;100303;1281;1058212;-30
2023/12/14 03:57:41;;;;;;;92.30;22.90;;;;;;;-128.00;-1.00;-1.00;100474;1281;1002594;-30
2023/12/14 04:00:10;;;;;;;89.60;23.60;;;;;;;-128.00;-1.00;-1.00;100484;1281;1003523;-31
2023/12/14 04:02:36;;;;;;;112.60;24.50;;;;;;;-128.00;-1.00;-1.00;100478;1281;1059753;-30
2023/12/14 04:05:02;;;;;;;148.40;28.90;;;;;;;-128.00;-1.00;-1.00;100478;1282;1004080;-31
2023/12/14 04:07:28;;;;;;;107.50;23.10;;;;;;;-128.00;-1.00;-1.00;100351;1282;1003176;-30
2023/12/14 04:09:54;;;;;;;123.60;25.60;;;;;;;-128.00;-1.00;-1.00;100325;1281;1038237;-30
2023/12/14 04:12:20;;;;;;;103.20;23.20;;;;;;;-128.00;-1.00;-1.00;100392;1282;1003265;-31
2023/12/14 04:14:46;;;;;;;133.20;25.50;;;;;;;-128.00;-1.00;-1.00;100663;1281;1003435;-36
2023/12/14 04:17:12;;;;;;;128.10;24.10;;;;;;;-128.00;-1.00;-1.00;100411;1282;1058086;-31
2023/12/14 04:19:38;;;;;;;140.40;27.20;;;;;;;-128.00;-1.00;-1.00;100502;1281;1003808;-31
2023/12/14 04:22:04;;;;;;;141.60;27.70;;;;;;;-128.00;-1.00;-1.00;100473;1281;1003395;-31
2023/12/14 04:24:30;;;;;;;142.60;28.50;;;;;;;-128.00;-1.00;-1.00;100554;1281;1003510;-30
2023/12/14 04:26:56;;;;;;;107.70;24.00;;;;;;;-128.00;-1.00;-1.00;100524;1281;1003355;-30
2023/12/14 04:29:22;;;;;;;97.60;23.50;;;;;;;-128.00;-1.00;-1.00;100312;1281;1059042;-34
2023/12/14 04:31:48;;;;;;;105.70;26.10;;;;;;;-128.00;-1.00;-1.00;100461;1282;1003480;-32
2023/12/14 04:34:15;;;;;;;114.60;26.20;;;;;;;-128.00;-1.00;-1.00;100432;1281;1003779;-31
2023/12/14 04:36:42;;;;;;;109.00;25.10;;;;;;;-128.00;-1.00;-1.00;100342;1282;1003867;-31
2023/12/14 04:39:08;;;;;;;146.40;27.30;;;;;;;-128.00;-1.00;-1.00;100422;1282;1003384;-33
2023/12/14 04:41:34;;;;;;;109.00;26.30;;;;;;;-128.00;-1.00;-1.00;100648;1282;1003679;-31
2023/12/14 04:44:00;;;;;;;138.20;28.20;;;;;;;-128.00;-1.00;-1.00;100334;1282;1004450;-32
2023/12/14 04:46:25;;;;;;;115.90;26.70;;;;;;;-128.00;-1.00;-1.00;100422;1282;1039499;-32
2023/12/14 04:48:51;;;;;;;123.60;27.60;;;;;;;-128.00;-1.00;-1.00;100397;1282;1003618;-32
2023/12/14 04:51:17;;;;;;;87.70;24.50;;;;;;;-128.00;-1.00;-1.00;100388;1282;1002600;-32
2023/12/14 04:53:43;;;;;;;114.20;26.80;;;;;;;-128.00;-1.00;-1.00;100381;1281;1059408;-32
2023/12/14 04:56:12;;;;;;;113.80;27.20;;;;;;;-128.00;-1.00;-1.00;100489;1284;1004354;-34
2023/12/14 04:58:39;;;;;;;106.10;27.90;;;;;;;-128.00;-1.00;-1.00;100451;1282;1039018;-31
2023/12/14 05:01:04;;;;;;;116.10;27.70;;;;;;;-128.00;-1.00;-1.00;100391;1281;1003399;-32
2023/12/14 05:03:30;;;;;;;106.90;25.80;;;;;;;-128.00;-1.00;-1.00;100564;1284;1004693;-31
2023/12/14 05:05:56;;;;;;;105.80;26.00;;;;;;;-128.00;-1.00;-1.00;100373;1282;1004103;-30
2023/12/14 05:08:22;;;;;;;107.50;26.80;;;;;;;-128.00;-1.00;-1.00;100377;1281;1012192;-31
2023/12/14 05:10:48;;;;;;;;;;;;;;;-128.00;-1.00;-1.00;100570;1282;1004707;-30
2023/12/14 05:13:14;;;;;;;128.90;30.90;;;;;;;-128.00;-1.00;-1.00;100373;1282;1004681;-31
2023/12/14 05:15:41;;;;;;;143.10;32.60;;;;;;;-128.00;-1.00;-1.00;100392;1282;1055874;-32
2023/12/14 05:18:07;;;;;;;138.50;31.30;;;;;;;-128.00;-1.00;-1.00;100413;1282;1002821;-30
2023/12/14 05:20:33;;;;;;;141.20;29.60;;;;;;;-128.00;-1.00;-1.00;100375;1280;1003545;-30
2023/12/14 05:22:59;;;;;;;171.10;30.10;;;;;;;-128.00;-1.00;-1.00;100272;1282;1004154;-32
2023/12/14 05:25:25;;;;;;;127.60;26.30;;;;;;;-128.00;-1.00;-1.00;100349;1282;1004637;-30
2023/12/14 05:27:51;;;;;;;157.40;28.40;;;;;;;-128.00;-1.00;-1.00;100375;1282;1055387;-32
2023/12/14 05:30:17;;;;;;;163.20;28.10;;;;;;;-128.00;-1.00;-1.00;100343;1282;1003825;-37
2023/12/14 05:32:44;;;;;;;125.40;26.50;;;;;;;-128.00;-1.00;-1.00;100499;1284;1003811;-30
2023/12/14 05:35:10;;;;;;;135.00;28.10;;;;;;;-128.00;-1.00;-1.00;100366;1284;1003493;-30
2023/12/14 05:37:36;;;;;;;125.90;27.10;;;;;;;-128.00;-1.00;-1.00;100425;1281;1003252;-31
2023/12/14 05:40:03;;;;;;;180.90;27.00;;;;;;;-128.00;-1.00;-1.00;100311;1281;1055769;-31
2023/12/14 05:42:28;;;;;;;160.50;27.40;;;;;;;-128.00;-1.00;-1.00;100412;1282;1002888;-31
2023/12/14 05:44:54;;;;;;;130.10;26.10;;;;;;;-128.00;-1.00;-1.00;100375;1282;1003070;-35
2023/12/14 05:47:21;;;;;;;114.40;25.70;;;;;;;-128.00;-1.00;-1.00;100454;1282;1003861;-33
2023/12/14 05:49:48;;;;;;;120.60;27.10;;;;;;;-128.00;-1.00;-1.00;100450;1280;1059121;-33
2023/12/14 05:52:14;;;;;;;114.30;26.00;;;;;;;-128.00;-1.00;-1.00;100394;1282;1003647;-32
2023/12/14 05:54:40;;;;;;;144.40;30.50;;;;;;;-128.00;-1.00;-1.00;100327;1280;1004431;-30
2023/12/14 05:57:06;;;;;;;121.00;29.10;;;;;;;-128.00;-1.00;-1.00;100434;1282;1003109;-38
2023/12/14 05:59:32;;;;;;;113.10;27.10;;;;;;;-128.00;-1.00;-1.00;100503;1282;1046018;-32
2023/12/14 06:01:58;;;;;;;150.40;28.10;;;;;;;-128.00;-1.00;-1.00;100413;1282;1003580;-32
2023/12/14 06:04:24;;;;;;;133.10;26.50;;;;;;;-128.00;-1.00;-1.00;100562;1284;1003170;-32
2023/12/14 06:06:50;;;;;;;;;;;;;;;-128.00;-1.00;-1.00;100400;1284;1004710;-31
2023/12/14 06:09:17;;;;;;;206.70;31.00;;;;;;;-128.00;-1.00;-1.00;100293;1282;1004442;-30
2023/12/14 06:11:43;;;;;;;136.70;31.30;;;;;;;-128.00;-1.00;-1.00;100362;1281;1046777;-31
2023/12/14 06:14:08;;;;;;;228.70;34.80;;;;;;;-128.00;-1.00;-1.00;100493;1282;1003981;-33
2023/12/14 06:16:34;;;;;;;146.20;30.70;;;;;;;-128.00;-1.00;-1.00;100536;1282;1003739;-32
2023/12/14 06:19:00;;;;;;;177.60;29.10;;;;;;;-128.00;-1.00;-1.00;100292;1282;1013006;-33
2023/12/14 06:21:28;;;;;;;158.20;27.90;;;;;;;-128.00;-1.00;-1.00;100379;1282;1002932;-33
2023/12/14 06:23:56;;;;;;;238.10;30.00;;;;;;;-128.00;-1.00;-1.00;100441;1282;1002913;-32
2023/12/14 06:26:22;;;;;;;129.60;25.10;;;;;;;-128.00;-1.00;-1.00;100327;1282;1002932;-32
2023/12/14 06:28:47;;;;;;;139.70;26.70;;;;;;;-128.00;-1.00;-1.00;100287;1281;1003841;-30
2023/12/14 06:31:17;;;;;;;132.50;24.80;;;;;;;-128.00;-1.00;-1.00;100545;1281;1003105;-30
2023/12/14 06:33:43;;;;;;;191.80;29.30;;;;;;;-128.00;-1.00;-1.00;100317;1282;1039204;-31
2023/12/14 06:36:09;;;;;;;146.10;27.90;;;;;;;-128.00;-1.00;-1.00;100322;1281;1003644;-30
2023/12/14 06:38:36;;;;;;;;;;;;;;;-128.00;-1.00;-1.00;100340;1282;1003554;-30
2023/12/14 06:41:02;;;;;;;93.60;21.30;;;;;;;-128.00;-1.00;-1.00;100289;1282;1002794;-31
2023/12/14 06:43:27;;;;;;;114.00;22.30;;;;;;;-128.00;-1.00;-1.00;100328;1281;1002991;-32
2023/12/14 06:45:53;;;;;;;174.20;27.60;;;;;;;-128.00;-1.00;-1.00;100310;1284;1038336;-33
2023/12/14 06:48:20;;;;;;;110.20;21.60;;;;;;;-128.00;-1.00;-1.00;100327;1284;1003315;-32
2023/12/14 06:50:46;;;;;;;157.50;24.40;;;;;;;-128.00;-1.00;-1.00;100332;1284;1003378;-32
2023/12/14 06:53:11;;;;;;;130.20;23.30;;;;;;;-128.00;-1.00;-1.00;100367;1282;1003749;-31
2023/12/14 06:55:37;;;;;;;97.80;20.00;;;;;;;-128.00;-1.00;-1.00;100296;1282;1013584;-31
2023/12/14 06:58:04;;;;;;;103.30;21.90;;;;;;;-128.00;-1.00;-1.00;100390;1282;1003609;-29
2023/12/14 07:00:29;;;;;;;140.10;23.20;;;;;;;-128.00;-1.00;-1.00;100231;1282;1002949;-31
2023/12/14 07:02:55;;;;;;;82.50;18.80;;;;;;;-128.00;-1.00;-1.00;100440;1282;1003532;-31
2023/12/14 07:05:21;;;;;;;128.60;24.00;;;;;;;-128.00;-1.00;-1.00;100252;1282;1058392;-31
2023/12/14 07:07:47;;;;;;;101.90;22.20;;;;;;;-128.00;-1.00;-1.00;100255;1282;1003591;-30
2023/12/14 07:10:13;;;;;;;103.40;22.60;;;;;;;-128.00;-1.00;-1.00;100521;1282;1002855;-30
2023/12/14 07:12:38;;;;;;;95.90;21.60;;;;;;;-128.00;-1.00;-1.00;100539;1282;1059396;-33
2023/12/14 07:15:05;;;;;;;106.90;23.20;;;;;;;-128.00;-1.00;-1.00;100348;1282;1002598;-33
2023/12/14 07:17:31;;;;;;;112.40;21.90;;;;;;;-128.00;-1.00;-1.00;100275;1281;1003718;-30
2023/12/14 07:19:57;;;;;;;115.70;22.20;;;;;;;-128.00;-1.00;-1.00;100347;1281;1002664;-30
2023/12/14 07:22:23;;;;;;;121.00;26.30;;;;;;;-128.00;-1.00;-1.00;100350;1282;1003307;-30
2023/12/14 07:24:48;;;;;;;122.80;29.10;;;;;;;-128.00;-1.00;-1.00;100509;1282;1059624;-32
2023/12/14 07:27:14;;;;;;;116.70;26.20;;;;;;;-128.00;-1.00;-1.00;100406;1282;1003902;-30
2023/12/14 07:29:40;;;;;;;145.10;27.00;;;;;;;-128.00;-1.00;-1.00;100535;1282;1003448;-31
2023/12/14 07:32:06;;;;;;;113.00;24.00;;;;;;;-128.00;-1.00;-1.00;100483;1283;1039409;-31
2023/12/14 07:34:32;;;;;;;109.90;25.20;;;;;;;-128.00;-1.00;-1.00;100330;1281;1004303;-31
2023/12/14 07:36:57;;;;;;;133.50;26.50;;;;;;;-128.00;-1.00;-1.00;100417;1281;1003019;-30
2023/12/14 07:39:23;;;;;;;94.60;22.70;;;;;;;-128.00;-1.00;-1.00;100476;1282;1059114;-32
2023/12/14 07:41:49;;;;;;;115.50;26.10;;;;;;;-128.00;-1.00;-1.00;100351;1281;1002588;-32
2023/12/14 07:44:14;;;;;;;108.40;25.10;;;;;;;-128.00;-1.00;-1.00;100388;1282;1003414;-31
2023/12/14 07:46:42;;;;;;;109.50;23.80;;;;;;;-128.00;-1.00;-1.00;100372;1282;1060481;-31
2023/12/14 07:49:08;;;;;;;113.50;26.20;;;;;;;-128.00;-1.00;-1.00;100392;1280;1002796;-30
2023/12/14 07:51:34;;;;;;;112.00;26.80;;;;;;;-128.00;-1.00;-1.00;100258;1286;1003219;-35
2023/12/14 07:54:00;;;;;;;108.80;29.50;;;;;;;-128.00;-1.00;-1.00;100554;1282;1004933;-31
2023/12/14 07:56:27;;;;;;;172.10;39.50;;;;;;;-128.00;-1.00;-1.00;100406;1284;1047180;-31
2023/12/14 07:58:53;;;;;;;134.50;37.30;;;;;;;-128.00;-1.00;-1.00;100325;1281;1003617;-32
2023/12/14 08:01:20;;;;;;;;;;;;;;;-128.00;-1.00;-1.00;100481;1281;1003615;-32
2023/12/14 08:03:46;;;;;;;137.50;33.90;;;;;;;-128.00;-1.00;-1.00;100365;1282;1004297;-38
2023/12/14 08:06:12;;;;;;;;;;;;;;;-128.00;-1.00;-1.00;100353;1282;1003371;-30
2023/12/14 08:08:38;;;;;;;147.50;32.50;;;;;;;-128.00;-1.00;-1.00;100350;1284;1003728;-32
2023/12/14 08:11:05;;;;;;;133.00;31.10;;;;;;;-128.00;-1.00;-1.00;100145;1287;1059625;-30
2023/12/14 08:13:30;;;;;;;122.40;27.40;;;;;;;-128.00;-1.00;-1.00;100267;1282;1003127;-32
2023/12/14 08:15:56;;;;;;;112.20;25.60;;;;;;;-128.00;-1.00;-1.00;100267;1281;1003336;-31
2023/12/14 08:18:22;;;;;;;;;;;;;;;-128.00;-1.00;-1.00;100356;1284;1003221;-31
2023/12/14 08:20:48;;;;;;;97.70;20.60;;;;;;;-128.00;-1.00;-1.00;100302;1282;1003125;-32
2023/12/14 08:23:14;;;;;;;159.60;27.50;;;;;;;-128.00;-1.00;-1.00;100392;1284;1002991;-32
2023/12/14 08:25:40;;;;;;;139.00;26.90;;;;;;;-128.00;-1.00;-1.00;100476;1282;1002825;-33
2023/12/14 08:28:06;;;;;;;143.10;27.00;;;;;;;-128.00;-1.00;-1.00;100376;1282;1012114;-35
2023/12/14 08:30:31;;;;;;;138.70;26.40;;;;;;;-128.00;-1.00;-1.00;100434;1281;1002854;-31
2023/12/14 08:32:57;;;;;;;161.00;29.70;;;;;;;-128.00;-1.00;-1.00;100299;1282;1003316;-31
2023/12/14 08:35:23;;;;;;;130.90;25.80;;;;;;;-128.00;-1.00;-1.00;100298;1281;1056143;-31
2023/12/14 08:37:49;;;;;;;156.10;26.90;;;;;;;-128.00;-1.00;-1.00;100284;1282;1003945;-29
2023/12/14 08:40:15;;;;;;;131.90;25.40;;;;;;;-128.00;-1.00;-1.00;100378;1281;1003778;-32
2023/12/14 08:42:41;;;;;;;113.70;23.30;;;;;;;-128.00;-1.00;-1.00;100428;1282;1046542;-32
2023/12/14 08:45:08;;;;;;;133.80;25.90;;;;;;;-128.00;-1.00;-1.00;100329;1282;1003407;-31
2023/12/14 08:47:34;;;;;;;131.40;26.80;;;;;;;-128.00;-1.00;-1.00;100274;1282;1003344;-30
2023/12/14 08:50:00;;;;;;;129.00;26.70;;;;;;;-128.00;-1.00;-1.00;99996;1282;1003032;-31
2023/12/14 08:52:25;;;;;;;;;;;;;;;-128.00;-1.00;-1.00;100323;1283;1003043;-31
2023/12/14 08:54:51;;;;;;;98.30;23.10;;;;;;;-128.00;-1.00;-1.00;100340;1284;1003816;-31
2023/12/14 08:57:17;;;;;;;190.80;26.30;;;;;;;-128.00;-1.00;-1.00;100322;1282;1060138;-30
2023/12/14 08:59:43;;;;;;;176.00;31.20;;;;;;;-128.00;-1.00;-1.00;100291;1282;1003326;-32
2023/12/14 09:02:08;;;;;;;;;;;;;;;-128.00;-1.00;-1.00;100449;1282;1003623;-32
2023/12/14 09:04:35;;;;;;;132.00;26.90;;;;;;;-128.00;-1.00;-1.00;100468;1282;1003661;-32
2023/12/14 09:07:01;;;;;;;170.60;26.20;;;;;;;-128.00;-1.00;-1.00;100296;1282;1002962;-32
2023/12/14 09:09:28;;;;;;;149.50;28.40;;;;;;;-128.00;-1.00;-1.00;100329;1284;1003090;-32
2023/12/14 09:11:54;;;;;;;141.20;27.70;;;;;;;-128.00;-1.00;-1.00;100319;1282;1003286;-31
2023/12/14 09:14:20;;;;;;;140.00;28.80;;;;;;;-128.00;-1.00;-1.00;100520;1284;1002952;-32
2023/12/14 09:16:46;;;;;;;133.90;28.80;;;;;;;-128.00;-1.00;-1.00;100333;1282;1002666;-33
2023/12/14 09:19:12;;;;;;;161.70;33.50;;;;;;;-128.00;-1.00;-1.00;100328;1282;1003264;-31
2023/12/14 09:21:38;;;;;;;;;;;;;;;-128.00;-1.00;-1.00;100303;1282;1060954;-30
2023/12/14 09:24:04;;;;;;;163.30;32.70;;;;;;;-128.00;-1.00;-1.00;100413;1282;1003445;-32
2023/12/14 09:26:30;;;;;;;135.80;29.40;;;;;;;-128.00;-1.00;-1.00;100309;1281;1003356;-31
2023/12/14 09:28:56;;;;;;;107.40;26.00;;;;;;;-128.00;-1.00;-1.00;100373;1284;1038743;-31
2023/12/14 09:31:21;;;;;;;116.90;26.50;;;;;;;-128.00;-1.00;-1.00;100433;1282;1004891;-34
2023/12/14 09:33:47;;;;;;;113.10;28.30;;;;;;;-128.00;-1.00;-1.00;100317;1282;1002685;-31
2023/12/14 09:36:13;;;;;;;127.70;26.70;;;;;;;-128.00;-1.00;-1.00;100297;1282;1058746;-31
2023/12/14 09:38:39;;;;;;;119.00;27.40;;;;;;;-128.00;-1.00;-1.00;100335;1281;1003329;-30
2023/12/14 09:41:07;;;;;;;113.90;26.80;;;;;;;-128.00;-1.00;-1.00;100326;1282;1003481;-30
2023/12/14 09:43:33;;;;;;;108.30;26.60;;;;;;;-128.00;-1.00;-1.00;100276;1282;1059634;-32
2023/12/14 09:45:59;;;;;;;102.10;24.50;;;;;;;-128.00;-1.00;-1.00;100471;1282;1004841;-32
2023/12/14 09:48:25;;;;;;;126.70;29.10;;;;;;;-128.00;-1.00;-1.00;100236;1282;1003538;-31
2023/12/14 09:50:50;;;;;;;123.00;28.30;;;;;;;-128.00;-1.00;-1.00;100289;1281;1003389;-32
2023/12/14 09:53:16;;;;;;;81.50;23.70;;;;;;;-128.00;-1.00;-1.00;100373;1282;1046620;-32
2023/12/14 09:55:42;;;;;;;131.40;29.20;;;;;;;-128.00;-1.00;-1.00;100402;1282;1003218;-31
2023/12/14 09:58:10;;;;;;;115.20;28.30;;;;;;;-128.00;-1.00;-1.00;100400;1282;1003000;-31
2023/12/14 10:00:40;;;;;;;130.40;27.30;;;;;;;-128.00;-1.00;-1.00;100320;1283;1012386;-31
2023/12/14 10:03:20;;;;;;;105.10;26.20;;;;;;;-128.00;-1.00;-1.00;100559;1284;1039425;-32
2023/12/14 10:05:46;;;;;;;140.00;29.70;;;;;;;-128.00;-1.00;-1.00;100360;1281;1046958;-31
2023/12/14 10:08:12;;;;;;;125.60;32.00;;;;;;;-128.00;-1.00;-1.00;100264;1282;1003119;-32
2023/12/14 10:10:38;;;;;;;116.20;28.40;;;;;;;-128.00;-1.00;-1.00;100380;1282;1002895;-31
2023/12/14 10:13:04;;;;;;;99.40;25.70;;;;;;;-128.00;-1.00;-1.00;100331;1281;1003061;-31
2023/12/14 10:15:43;;;;;;;104.20;26.30;;;;;;;-128.00;-1.00;-1.00;100288;1281;1003226;-30
2023/12/14 10:18:08;;;;;;;103.80;26.40;;;;;;;-128.00;-1.00;-1.00;100332;1284;1045622;-32
2023/12/14 10:20:34;;;;;;;100.10;26.90;;;;;;;-128.00;-1.00;-1.00;100324;1284;1005414;-32
2023/12/14 10:23:00;;;;;;;88.20;26.10;;;;;;;-128.00;-1.00;-1.00;100345;1282;1003306;-33
2023/12/14 10:25:26;;;;;;;72.20;23.40;;;;;;;-128.00;-1.00;-1.00;100292;1282;1012991;-33
2023/12/14 10:27:54;;;;;;;82.30;24.90;;;;;;;-128.00;-1.00;-1.00;100319;1281;1002884;-33
2023/12/14 10:30:20;;;;;;;76.80;23.30;;;;;;;-128.00;-1.00;-1.00;100312;1282;1002678;-32
2023/12/14 10:32:50;;;;;;;;;;;;;;;-128.00;-1.00;-1.00;100332;1284;1003175;-31
2023/12/14 10:35:16;;;;;;;68.90;22.60;;;;;;;-128.00;-1.00;-1.00;100303;1282;1056229;-36
2023/12/14 10:37:42;;;;;;;90.70;24.90;;;;;;;-128.00;-1.00;-1.00;100219;1282;1003546;-33
2023/12/14 10:40:12;;;;;;;94.10;26.50;;;;;;;-128.00;-1.00;-1.00;100313;1282;1005179;-32
2023/12/14 10:42:38;;;;;;;65.70;23.00;;;;;;;-128.00;-1.00;-1.00;100251;1284;1038929;-32
2023/12/14 10:45:06;;;;;;;78.40;23.60;;;;;;;-128.00;-1.00;-1.00;100321;1282;1004103;-33
2023/12/14 10:47:31;;;;;;;85.60;26.50;;;;;;;-128.00;-1.00;-1.00;100284;1282;1003035;-30
2023/12/14 10:49:58;;;;;;;93.30;27.70;;;;;;;-128.00;-1.00;-1.00;100314;1282;1003508;-30
2023/12/14 10:52:24;;;;;;;104.70;29.10;;;;;;;-128.00;-1.00;-1.00;100312;1281;1003177;-33
2023/12/14 10:55:05;;;;;;;89.70;26.90;;;;;;;-128.00;-1.00;-1.00;100297;1282;1003362;-32
2023/12/14 10:57:30;;;;;;;94.70;26.90;;;;;;;-128.00;-1.00;-1.00;100385;1284;1038583;-32
2023/12/14 11:00:00;;;;;;;103.00;29.20;;;;;;;-128.00;-1.00;-1.00;100320;1282;1002462;-30
2023/12/14 11:02:26;;;;;;;105.30;28.10;;;;;;;-128.00;-1.00;-1.00;100099;1282;1060363;-31
2023/12/14 11:05:05;;;;;;;99.20;26.10;;;;;;;-128.00;-1.00;-1.00;100451;1283;1003353;-33
2023/12/14 11:07:44;;;;;;;88.30;26.20;;;;;;;-128.00;-1.00;-1.00;100427;1281;1058698;-32
2023/12/14 11:10:11;;;;;;;89.70;27.00;;;;;;;-128.00;-1.00;-1.00;100338;1284;1012842;-31
2023/12/14 11:12:37;;;;;;;113.70;30.50;;;;;;;-128.00;-1.00;-1.00;100292;1284;1003521;-32
2023/12/14 11:15:05;;;;;;;;;;;;;;;-128.00;-1.00;-1.00;100264;1284;1003389;-32
2023/12/14 11:17:31;;;;;;;107.30;29.80;;;;;;;-128.00;-1.00;-1.00;100293;1282;1003189;-32
2023/12/14 11:19:57;;;;;;;101.40;27.30;;;;;;;-128.00;-1.00;-1.00;100349;1282;1003635;-32
2023/12/14 11:22:23;;;;;;;128.90;34.40;;;;;;;-128.00;-1.00;-1.00;100321;1284;1002845;-31
2023/12/14 11:24:54;;;;;;;115.40;32.50;;;;;;;-128.00;-1.00;-1.00;100289;1282;1003151;-30
2023/12/14 11:27:25;;;;;;;108.30;31.30;;;;;;;-128.00;-1.00;-1.00;100339;1284;1038693;-30
2023/12/14 11:29:51;;;;;;;101.00;30.20;;;;;;;-128.00;-1.00;-1.00;100541;1283;1046572;-35
2023/12/14 11:32:18;;;;;;;122.30;32.60;;;;;;;-128.00;-1.00;-1.00;100329;1282;1002931;-31
2023/12/14 11:34:46;;;;;;;141.80;38.20;;;;;;;-128.00;-1.00;-1.00;100225;1282;1003014;-30
2023/12/14 11:37:12;;;;;;;195.90;52.50;;;;;;;-128.00;-1.00;-1.00;100365;1282;1004287;-31